createdAt,value
2022-08-12T00:04:20.991Z,91.90
2022-08-12T00:09:41.239Z,92.20
2022-08-12T00:15:02.586Z,92.90
2022-08-12T00:20:24.424Z,93.10
2022-08-12T00:26:22.395Z,92.50
2022-08-12T00:31:43.043Z,92.70
2022-08-12T00:37:32.473Z,92.70
2022-08-12T00:42:37.927Z,92.80
2022-08-12T00:52:44.573Z,92.60
2022-08-12T00:57:49.567Z,93.10
2022-08-12T01:02:55.613Z,93.10
2022-08-12T01:13:20.622Z,94.20
2022-08-12T01:18:33.850Z,93.30
2022-08-12T01:23:38.398Z,93.70
2022-08-12T01:28:42.724Z,93.50
2022-08-12T01:34:28.753Z,93.80
2022-08-12T01:40:36.047Z,94.20
2022-08-12T01:55:48.242Z,94.30
2022-08-12T02:01:01.355Z,94.30
2022-08-12T02:06:28.804Z,96.50
2022-08-12T02:11:39.606Z,94.70
2022-08-12T02:17:05.436Z,95.60
2022-08-12T02:22:41.499Z,95.10
2022-08-12T02:27:46.718Z,94.80
2022-08-12T02:32:52.040Z,95.10
2022-08-12T02:37:56.127Z,95.10
2022-08-12T02:43:19.002Z,96.10
2022-08-12T02:48:30.819Z,96.40
2022-08-12T02:53:34.407Z,95.70
2022-08-12T03:03:52.816Z,95.80
2022-08-12T03:08:58.553Z,96.40
2022-08-12T03:19:06.523Z,96.40
2022-08-12T03:34:23.497Z,96.30
2022-08-12T03:39:41.423Z,97.20
2022-08-12T03:45:12.359Z,97.20
2022-08-12T03:50:33.270Z,97.60
2022-08-12T03:55:55.080Z,97.40
2022-08-12T04:00:58.703Z,97.60
2022-08-12T04:06:00.486Z,97.60
2022-08-12T04:16:23.714Z,97.70
2022-08-12T04:26:31.181Z,98.50
2022-08-12T04:31:39.913Z,98.50
2022-08-12T04:36:44.258Z,98.00
2022-08-12T04:41:54.418Z,98.00
2022-08-12T04:47:00.586Z,98.20
2022-08-12T04:57:09.437Z,99.00
2022-08-12T05:12:28.353Z,99.90
2022-08-12T05:17:30.341Z,99.90
2022-08-12T05:22:37.163Z,99.90
2022-08-12T05:27:57.940Z,99.90
2022-08-12T05:43:36.552Z,99.90
2022-08-12T05:53:41.525Z,99.90
2022-08-12T06:03:50.889Z,99.90
2022-08-12T06:08:54.082Z,99.90
2022-08-12T06:39:32.638Z,97.90
2022-08-12T06:49:36.979Z,96.90
2022-08-12T07:04:49.819Z,93.40
2022-08-12T07:25:40.723Z,91.40
2022-08-12T07:30:44.964Z,92.00
2022-08-12T07:35:48.126Z,90.50
2022-08-12T07:40:53.655Z,90.30
2022-08-12T07:45:56.172Z,90.40
2022-08-12T07:50:59.291Z,90.20
2022-08-12T07:56:02.422Z,89.60
2022-08-12T08:06:19.913Z,87.10
2022-08-12T08:11:41.874Z,86.70
2022-08-12T08:16:44.060Z,87.80
2022-08-12T08:21:46.543Z,85.90
2022-08-12T08:26:52.198Z,85.30
2022-08-12T08:31:55.457Z,85.70
2022-08-12T08:36:57.804Z,85.40
2022-08-12T08:42:20.707Z,83.20
2022-08-12T08:47:25.579Z,83.90
2022-08-12T08:52:38.957Z,86.80
2022-08-12T08:57:45.449Z,85.90
2022-08-12T09:02:58.602Z,83.70
2022-08-12T09:14:12.336Z,82.40
2022-08-12T09:18:53.728Z,78.40
2022-08-12T09:24:07.643Z,79.80
2022-08-12T09:29:14.161Z,80.30
2022-08-12T09:34:27.909Z,76.40
2022-08-12T09:40:06.529Z,75.00
2022-08-12T09:45:19.491Z,77.00
2022-08-12T09:50:26.153Z,80.40
2022-08-12T09:56:06.218Z,77.40
2022-08-12T10:00:52.709Z,75.10
2022-08-12T10:06:20.511Z,76.40
2022-08-12T10:12:07.800Z,74.90
2022-08-12T10:16:58.304Z,75.10
2022-08-12T10:22:01.623Z,72.20
2022-08-12T10:27:24.045Z,73.20
2022-08-12T10:32:44.080Z,75.80
2022-08-12T10:38:37.215Z,70.90
2022-08-12T10:43:56.493Z,69.80
2022-08-12T10:48:58.288Z,72.40
2022-08-12T10:54:08.360Z,74.20
2022-08-12T10:59:18.341Z,71.90
2022-08-12T11:04:49.684Z,69.90
2022-08-12T11:10:00.258Z,71.50
2022-08-12T11:15:19.410Z,72.40
2022-08-12T11:20:30.499Z,71.70
2022-08-12T11:25:55.563Z,70.70
2022-08-12T11:30:54.545Z,70.40
2022-08-12T11:46:37.714Z,69.90
2022-08-12T11:51:39.985Z,72.60
2022-08-12T11:56:42.862Z,66.90
2022-08-12T12:07:07.325Z,71.70
2022-08-12T12:12:09.648Z,70.50
2022-08-12T12:17:11.484Z,69.90
2022-08-12T12:22:15.601Z,70.50
2022-08-12T12:27:40.171Z,71.80
2022-08-12T12:32:53.196Z,72.30
2022-08-12T12:38:04.190Z,67.90
2022-08-12T12:43:10.269Z,68.80
2022-08-12T12:48:15.423Z,65.80
2022-08-12T12:54:06.519Z,67.30
2022-08-12T12:58:44.222Z,64.20
2022-08-12T13:09:02.970Z,69.10
2022-08-12T13:24:40.204Z,68.60
2022-08-12T13:29:41.925Z,64.70
2022-08-12T13:39:54.012Z,69.00
2022-08-12T13:44:55.835Z,65.40
2022-08-12T13:49:59.851Z,66.00
2022-08-12T13:55:02.248Z,68.60
2022-08-12T14:00:09.827Z,67.00
2022-08-12T14:05:31.011Z,64.50
2022-08-12T14:10:50.921Z,63.60
2022-08-12T14:15:55.627Z,66.30
2022-08-12T14:21:12.437Z,66.90
2022-08-12T14:26:26.310Z,63.70
2022-08-12T14:36:34.359Z,63.40
2022-08-12T14:41:48.339Z,68.80
2022-08-12T14:46:59.346Z,66.30
2022-08-12T14:52:55.672Z,67.20
2022-08-12T14:57:24.094Z,67.30
2022-08-12T15:02:28.745Z,66.60
2022-08-12T15:07:34.151Z,70.70
2022-08-12T15:18:02.173Z,63.30
2022-08-12T15:23:05.874Z,67.90
2022-08-12T15:28:28.664Z,68.40
2022-08-12T15:33:44.643Z,70.50
2022-08-12T15:38:47.482Z,70.60
2022-08-12T15:44:16.198Z,69.30
2022-08-12T15:54:34.057Z,68.50
2022-08-12T15:59:59.998Z,70.50
2022-08-12T16:05:00.004Z,70.70
2022-08-12T16:10:06.558Z,68.40
2022-08-12T16:15:11.923Z,65.80
2022-08-12T16:20:33.232Z,65.30
2022-08-12T16:26:03.017Z,63.70
2022-08-12T16:30:57.722Z,66.60
2022-08-12T16:35:59.423Z,64.30
2022-08-12T16:41:01.672Z,66.50
2022-08-12T16:46:32.321Z,69.50
2022-08-12T16:51:27.009Z,71.90
2022-08-12T16:56:29.116Z,72.70
2022-08-12T17:01:34.978Z,69.40
2022-08-12T17:06:44.214Z,71.00
2022-08-12T17:11:49.596Z,69.80
2022-08-12T17:16:54.720Z,69.80
2022-08-12T17:22:02.101Z,69.70
2022-08-12T17:27:16.488Z,69.80
2022-08-12T17:32:22.228Z,69.50
2022-08-12T17:37:30.260Z,67.60
2022-08-12T17:42:37.803Z,69.90
2022-08-12T17:47:40.679Z,72.10
2022-08-12T17:52:44.802Z,72.00
2022-08-12T17:57:55.380Z,70.60
2022-08-12T18:02:58.295Z,72.00
2022-08-12T18:08:05.404Z,73.00
2022-08-12T18:13:40.830Z,72.80
2022-08-12T18:23:53.791Z,70.60
2022-08-12T18:28:56.693Z,72.30
2022-08-12T18:34:03.123Z,73.10
2022-08-12T18:39:04.962Z,72.80
2022-08-12T18:44:12.119Z,73.90
2022-08-12T18:49:38.609Z,72.70
2022-08-12T18:54:48.879Z,72.80
2022-08-12T19:00:01.083Z,73.60
2022-08-12T19:05:10.737Z,75.10
2022-08-12T19:10:13.761Z,75.10
2022-08-12T19:15:15.436Z,75.30
2022-08-12T19:20:19.031Z,75.40
2022-08-12T19:31:07.017Z,76.00
2022-08-12T19:36:25.243Z,75.80
2022-08-12T19:41:42.971Z,76.00
2022-08-12T19:46:53.013Z,76.00
2022-08-12T19:51:55.441Z,76.60
2022-08-12T19:56:58.514Z,77.30
2022-08-12T20:02:04.940Z,77.60
2022-08-12T20:07:23.905Z,77.40
2022-08-12T20:12:44.700Z,77.50
2022-08-12T20:17:57.582Z,79.00
2022-08-12T20:23:08.611Z,78.60
2022-08-12T20:38:26.691Z,81.60
2022-08-12T20:43:32.183Z,81.50
2022-08-12T20:48:35.273Z,83.90
2022-08-12T20:53:58.434Z,83.90
2022-08-12T20:59:20.053Z,83.10
2022-08-12T21:04:43.830Z,81.40
2022-08-12T21:09:47.949Z,82.70
2022-08-12T21:15:00.105Z,82.20
2022-08-12T21:20:22.457Z,82.40
2022-08-12T21:25:24.689Z,82.40
2022-08-12T21:30:43.203Z,84.30
2022-08-12T21:36:09.199Z,86.10
2022-08-12T21:41:24.695Z,84.30
2022-08-12T21:46:34.950Z,86.10
2022-08-12T21:56:55.633Z,89.30
2022-08-12T22:01:57.318Z,90.20
2022-08-12T22:06:59.635Z,90.20
2022-08-12T22:12:21.039Z,90.30
2022-08-12T22:17:33.811Z,90.70
2022-08-12T22:22:53.785Z,91.00
2022-08-12T22:28:16.864Z,90.50
2022-08-12T22:33:26.180Z,90.90
2022-08-12T22:38:29.633Z,91.10
2022-08-12T22:44:00.470Z,91.60
2022-08-12T22:49:06.637Z,92.00
2022-08-12T22:54:36.033Z,91.70
2022-08-12T22:59:33.799Z,91.50
2022-08-12T23:04:55.344Z,92.10
2022-08-12T23:09:57.636Z,92.60
2022-08-12T23:14:59.438Z,93.40
2022-08-12T23:20:01.831Z,92.90
2022-08-12T23:25:03.900Z,93.70
2022-08-12T23:30:19.183Z,93.30
2022-08-12T23:35:45.505Z,93.40
2022-08-12T23:40:48.887Z,92.60
2022-08-12T23:46:00.399Z,93.30
2022-08-12T23:51:03.916Z,93.30
2022-08-12T23:56:25.329Z,93.70
